This is the latest recevied weather packets stored in our database for station/object IS0HYQ-12. If no packets are shown the sender has not sent any weather packets the latest 10 day(s).
| Time | Temp. | Humidity | Pressure | Rain* | Wind** | Luminosity | Snow |
|---|---|---|---|---|---|---|---|
| 1777128705 | 28.89° C | 40% | 1016.7 hPa | - | - | - | - |
| 1777127805 | 27.78° C | 42% | 1016.7 hPa | - | - | - | - |
| 1777126905 | 27.78° C | 43% | 1016.8 hPa | - | - | - | - |
| 1777126005 | 27.22° C | 43% | 1016.8 hPa | - | - | - | - |
| 1777125104 | 27.22° C | 43% | 1016.9 hPa | - | - | - | - |
| 1777124204 | 27.22° C | 43% | 1017 hPa | - | - | - | - |
| 1777123304 | 26.67° C | 46% | 1017.1 hPa | - | - | - | - |
| 1777122403 | 26.67° C | 44% | 1017.1 hPa | - | - | - | - |
| 1777121503 | 26.11° C | 48% | 1017.2 hPa | - | - | - | - |
| 1777120603 | 25.56° C | 50% | 1017.3 hPa | - | - | - | - |
| 1777119703 | 24.44° C | 56% | 1017.4 hPa | - | - | - | - |
| 1777118802 | 23.89° C | 62% | 1017.5 hPa | - | - | - | - |
| 1777117902 | 23.33° C | 64% | 1017.7 hPa | - | - | - | - |
| 1777117014 | 23.33° C | 69% | 1017.7 hPa | - | - | - | - |
| 1777116114 | 22.78° C | 69% | 1017.7 hPa | - | - | - | - |
| 1777115202 | 22.78° C | 71% | 1017.7 hPa | - | - | - | - |
| 1777114301 | 22.78° C | 70% | 1017.8 hPa | - | - | - | - |
| 1777113401 | 23.89° C | 64% | 1017.8 hPa | - | - | - | - |
| 1777112500 | 23.89° C | 64% | 1017.9 hPa | - | - | - | - |
| 1777111600 | 24.44° C | 63% | 1017.9 hPa | - | - | - | - |
| 1777110699 | 24.44° C | 59% | 1018 hPa | - | - | - | - |
| 1777109799 | 25° C | 59% | 1018 hPa | - | - | - | - |
| 1777108899 | 25.56° C | 56% | 1018 hPa | - | - | - | - |
| 1777107999 | 25° C | 55% | 1018.1 hPa | - | - | - | - |
| 1777107098 | 25.56° C | 54% | 1018.1 hPa | - | - | - | - |
* Rain since midnight (hover to see other rain measurements)
** Current wind speed in m/s (hover to see current wind gust speed)